Terminal Aerodrome Forecast
Issued by NWS

Home | Current Version | Previous Version | Text Only | Print | Product List | Glossary On
Versions: 1 2 3 4 5 6 7 8 9 10 11 12 13 14 15
000
FTUS43 KIWX 232327
TAFSBN
TAF
KSBN 232327Z 2400/2424 03006KT P6SM VCSH OVC070
      TEMPO 2400/2404 4SM -SHRA OVC040
     FM240600 10009KT P6SM VCTS OVC015CB
     FM240900 14010KT P6SM OVC015 WS020/19035KT
     FM241300 17012KT P6SM OVC008
     FM242000 20014KT 4SM -SHRA VCTS OVC010CB=

USA.gov is the U.S. government's official web portal to all federal, state and local government web resources and services.